Time;durP1;ratioP1;P1;durP2;ratioP2;P2;SDS_P1;SDS_P2;PMS_P1;PMS_P2;Temp;Humidity;BMP_temperature;BMP_pressure;BME280_temperature;BME280_humidity;BME280_pressure;Samples;Min_cycle;Max_cycle;Signal;HPM_P1;HPM_P2
2023/09/18 00:00:01;;;;;;;29.35;21.35;;;17.20;99.90;;;;;;5043928;28;20852;-85
2023/09/18 00:02:27;;;;;;;25.60;21.30;;;16.70;99.90;;;;;;5032098;28;20040;-84
2023/09/18 00:04:53;;;;;;;24.27;20.67;;;16.70;99.90;;;;;;5025365;28;20045;-85
2023/09/18 00:07:19;;;;;;;25.65;22.27;;;16.60;99.90;;;;;;5027512;28;20037;-85
2023/09/18 00:09:44;;;;;;;26.08;21.38;;;16.70;99.90;;;;;;5059069;28;20048;-84
2023/09/18 00:12:10;;;;;;;27.05;22.52;;;16.60;99.90;;;;;;5036810;28;20381;-84
2023/09/18 00:14:38;;;;;;;30.33;23.20;;;16.60;99.90;;;;;;5035653;28;20045;-85
2023/09/18 00:17:06;;;;;;;27.55;22.80;;;17.10;99.90;;;;;;5011694;28;20049;-84
2023/09/18 00:19:32;;;;;;;29.55;22.40;;;16.70;99.90;;;;;;5028713;28;20480;-84
2023/09/18 00:22:00;;;;;;;33.42;23.40;;;16.60;99.90;;;;;;5062594;28;20099;-85
2023/09/18 00:24:29;;;;;;;31.98;25.23;;;16.60;99.90;;;;;;5032174;28;20049;-84
2023/09/18 00:26:55;;;;;;;27.52;24.35;;;17.20;99.90;;;;;;5051880;28;20440;-85
2023/09/18 00:29:20;;;;;;;31.13;24.08;;;16.60;99.90;;;;;;5049268;28;20053;-85
2023/09/18 00:31:46;;;;;;;31.08;24.23;;;16.60;99.90;;;;;;5050693;28;20428;-85
2023/09/18 00:34:11;;;;;;;27.42;23.17;;;16.70;99.90;;;;;;5054819;28;20566;-85
2023/09/18 00:36:37;;;;;;;22.85;20.45;;;16.60;99.90;;;;;;5043548;28;20041;-85
2023/09/18 00:39:03;;;;;;;28.15;22.73;;;16.60;99.90;;;;;;5055618;28;20045;-85
2023/09/18 00:41:29;;;;;;;31.50;24.27;;;16.60;99.90;;;;;;5062647;28;20091;-85
2023/09/18 00:43:55;;;;;;;29.42;23.35;;;16.60;99.90;;;;;;5049892;28;20077;-84
2023/09/18 00:46:21;;;;;;;26.27;22.30;;;16.60;99.90;;;;;;5051405;28;20451;-85
2023/09/18 00:48:46;;;;;;;27.13;21.35;;;16.70;99.90;;;;;;5064005;28;20079;-85
2023/09/18 00:51:13;;;;;;;27.65;22.15;;;16.70;99.90;;;;;;5067876;28;20072;-85
2023/09/18 00:53:45;;;;;;;26.30;21.55;;;16.70;99.90;;;;;;5049802;28;20147;-85
2023/09/18 00:56:11;;;;;;;25.60;22.55;;;16.80;99.90;;;;;;5013248;28;20041;-84
2023/09/18 00:58:37;;;;;;;26.80;21.73;;;16.90;99.90;;;;;;5039552;28;20036;-84
2023/09/18 01:01:04;;;;;;;25.83;21.35;;;16.80;99.90;;;;;;5045750;28;20049;-85
2023/09/18 01:03:30;;;;;;;25.23;21.40;;;16.80;99.90;;;;;;5066746;28;20048;-85
2023/09/18 01:05:55;;;;;;;28.02;20.88;;;16.80;99.90;;;;;;5056308;28;20051;-85
2023/09/18 01:08:21;;;;;;;24.73;20.95;;;16.80;99.90;;;;;;5046495;28;20079;-86
2023/09/18 01:11:14;;;;;;;26.27;21.80;;;16.90;99.90;;;;;;5032561;28;20503;-85
2023/09/18 01:14:03;;;;;;;23.60;21.02;;;16.80;99.90;;;;;;5049619;28;20574;-85
2023/09/18 01:16:39;;;;;;;24.88;21.63;;;16.80;99.90;;;;;;5047294;28;20076;-87
2023/09/18 01:19:05;;;;;;;25.55;21.35;;;16.80;99.90;;;;;;5062540;28;20554;-86
2023/09/18 01:21:30;;;;;;;26.20;21.52;;;16.80;99.90;;;;;;5039550;28;20143;-85
2023/09/18 01:23:56;;;;;;;24.63;21.17;;;16.80;99.90;;;;;;5067660;28;20124;-86
2023/09/18 01:26:22;;;;;;;23.30;20.80;;;16.80;99.90;;;;;;5047866;28;20053;-85
2023/09/18 01:28:48;;;;;;;27.00;21.83;;;16.90;99.90;;;;;;5045458;28;20045;-85
2023/09/18 01:31:13;;;;;;;24.23;21.63;;;16.90;99.90;;;;;;5044686;28;20516;-86
2023/09/18 01:33:40;;;;;;;24.98;21.50;;;16.80;99.90;;;;;;5048943;28;20041;-86
2023/09/18 01:36:08;;;;;;;30.05;22.48;;;16.90;99.90;;;;;;5064345;28;20053;-85
2023/09/18 01:38:35;;;;;;;24.67;21.85;;;16.90;99.90;;;;;;5056079;28;20559;-85
2023/09/18 01:41:01;;;;;;;24.70;21.95;;;17.80;99.90;;;;;;5045692;28;20098;-85
2023/09/18 01:43:27;;;;;;;26.23;22.45;;;16.90;99.90;;;;;;5048952;28;20133;-85
2023/09/18 01:45:55;;;;;;;25.65;22.95;;;16.90;99.90;;;;;;5057983;28;20061;-85
2023/09/18 01:48:20;;;;;;;26.13;22.63;;;17.00;99.90;;;;;;5053379;28;20048;-86
2023/09/18 01:50:46;;;;;;;27.85;22.75;;;17.60;99.90;;;;;;5045791;28;20044;-85
2023/09/18 01:53:11;;;;;;;25.27;22.35;;;17.00;99.90;;;;;;5032338;28;20520;-85
2023/09/18 01:55:37;;;;;;;25.58;22.88;;;17.00;99.90;;;;;;5047439;28;20460;-85
2023/09/18 01:58:03;;;;;;;26.13;22.17;;;17.10;99.90;;;;;;5062451;28;20079;-86
2023/09/18 02:00:28;;;;;;;25.67;23.00;;;17.00;99.90;;;;;;5066960;28;20081;-86
2023/09/18 02:02:54;;;;;;;25.30;22.67;;;17.00;99.90;;;;;;5047601;28;20127;-85
2023/09/18 02:05:19;;;;;;;25.95;23.23;;;17.00;99.90;;;;;;5044430;28;20045;-85
2023/09/18 02:07:45;;;;;;;24.05;21.58;;;17.10;99.90;;;;;;5048813;28;20130;-86
2023/09/18 02:10:12;;;;;;;23.38;20.90;;;17.20;99.90;;;;;;5050457;28;20052;-85
2023/09/18 02:12:39;;;;;;;25.73;22.55;;;17.10;99.90;;;;;;5044432;28;20055;-86
2023/09/18 02:15:06;;;;;;;25.25;22.55;;;17.30;99.90;;;;;;5064212;28;20147;-86
2023/09/18 02:17:33;;;;;;;25.50;21.75;;;17.20;99.90;;;;;;5047944;28;20052;-85
2023/09/18 02:20:04;;;;;;;25.52;22.52;;;17.20;99.90;;;;;;5058328;28;20448;-85
2023/09/18 02:22:32;;;;;;;24.67;22.08;;;17.20;99.90;;;;;;5060379;28;20442;-85
2023/09/18 02:25:00;;;;;;;23.30;20.85;;;17.30;99.90;;;;;;5045693;28;20053;-86
2023/09/18 02:27:26;;;;;;;24.52;22.02;;;17.40;99.90;;;;;;5030783;28;20728;-86
2023/09/18 02:29:53;;;;;;;22.75;20.48;;;17.30;99.90;;;;;;5065561;28;20195;-86
2023/09/18 02:32:21;;;;;;;23.75;21.17;;;17.40;99.90;;;;;;5062481;28;20057;-84
2023/09/18 02:34:47;;;;;;;23.42;21.02;;;17.50;99.90;;;;;;5043458;28;20041;-86
2023/09/18 02:37:12;;;;;;;23.42;21.02;;;17.40;99.90;;;;;;5054308;28;20053;-84
2023/09/18 02:39:38;;;;;;;22.85;20.55;;;17.40;99.90;;;;;;5043878;28;20045;-86
2023/09/18 02:42:03;;;;;;;22.25;19.95;;;17.60;99.90;;;;;;5029614;28;20040;-86
2023/09/18 02:44:29;;;;;;;21.38;19.27;;;17.40;99.90;;;;;;5044641;28;20037;-85
2023/09/18 02:46:55;;;;;;;22.55;19.95;;;17.50;99.90;;;;;;5044762;28;20048;-85
2023/09/18 02:49:20;;;;;;;21.25;19.13;;;17.40;99.90;;;;;;5047745;28;20048;-86
2023/09/18 02:51:46;;;;;;;20.83;18.58;;;17.50;99.90;;;;;;5028387;28;20044;-86
2023/09/18 02:54:11;;;;;;;19.65;17.75;;;17.40;99.90;;;;;;5051054;28;20037;-86
2023/09/18 02:56:38;;;;;;;20.83;18.63;;;18.10;99.90;;;;;;5066318;28;20461;-85
2023/09/18 02:59:03;;;;;;;19.48;17.42;;;17.90;99.90;;;;;;5040836;28;20040;-85
2023/09/18 03:01:29;;;;;;;19.45;17.55;;;17.50;99.90;;;;;;5062713;28;20051;-87
2023/09/18 03:03:55;;;;;;;20.25;18.17;;;17.50;99.90;;;;;;5047509;28;21581;-86
2023/09/18 03:06:20;;;;;;;19.70;17.83;;;17.60;99.90;;;;;;5047707;28;20091;-85
2023/09/18 03:08:46;;;;;;;19.05;17.10;;;17.80;99.90;;;;;;5061966;28;20044;-85
2023/09/18 03:11:12;;;;;;;18.13;16.33;;;17.60;99.90;;;;;;5048710;28;20560;-86
2023/09/18 03:13:44;;;;;;;21.65;15.82;;;17.80;99.90;;;;;;5037485;28;20109;-86
2023/09/18 03:16:11;;;;;;;19.65;16.23;;;17.80;99.90;;;;;;5039651;28;20052;-85
2023/09/18 03:18:37;;;;;;;17.90;15.88;;;18.20;99.90;;;;;;5043191;28;20094;-86
2023/09/18 03:21:02;;;;;;;19.23;15.40;;;18.20;99.90;;;;;;5060160;28;20057;-85
2023/09/18 03:23:28;;;;;;;19.90;15.90;;;17.70;99.90;;;;;;5030386;28;20060;-85
2023/09/18 03:25:54;;;;;;;16.65;15.15;;;17.70;99.90;;;;;;5054237;28;20055;-85
2023/09/18 03:28:19;;;;;;;18.73;14.48;;;17.70;99.90;;;;;;5033039;28;20114;-85
2023/09/18 03:30:45;;;;;;;15.43;14.02;;;17.80;99.90;;;;;;5055039;28;20044;-85
2023/09/18 03:33:11;;;;;;;16.35;13.88;;;18.00;99.90;;;;;;5052255;28;20048;-85
2023/09/18 03:35:48;;;;;;;16.13;14.40;;;17.80;99.90;;;;;;5027161;28;20603;-86
2023/09/18 03:38:14;;;;;;;15.73;14.18;;;18.30;99.90;;;;;;5066353;28;20079;-86
2023/09/18 03:40:39;;;;;;;14.82;13.05;;;17.90;99.90;;;;;;5046566;28;20468;-86
2023/09/18 03:43:05;;;;;;;14.77;13.20;;;18.20;99.90;;;;;;5047005;28;20059;-85
2023/09/18 03:45:31;;;;;;;17.30;13.27;;;17.90;99.90;;;;;;5048481;28;20477;-85
2023/09/18 03:47:56;;;;;;;14.68;13.18;;;17.90;99.90;;;;;;5045245;28;20063;-86
2023/09/18 03:50:22;;;;;;;14.27;12.85;;;18.00;99.90;;;;;;5052437;28;20079;-85
2023/09/18 03:52:47;;;;;;;14.43;12.70;;;18.10;99.90;;;;;;5067087;28;20041;-86
2023/09/18 03:55:14;;;;;;;13.80;12.40;;;18.00;99.90;;;;;;5050363;28;20037;-85
2023/09/18 03:57:41;;;;;;;14.30;12.80;;;18.00;99.90;;;;;;5036043;28;20052;-86
2023/09/18 04:00:08;;;;;;;13.93;12.40;;;18.40;99.90;;;;;;5044216;28;20044;-85
2023/09/18 04:02:35;;;;;;;13.40;12.00;;;18.00;99.90;;;;;;5031289;28;20051;-86
2023/09/18 04:05:01;;;;;;;14.32;12.50;;;18.00;99.90;;;;;;5060412;28;20069;-86
2023/09/18 04:07:27;;;;;;;14.20;12.48;;;18.00;99.90;;;;;;5035989;28;20052;-85
2023/09/18 04:09:53;;;;;;;14.82;12.13;;;18.10;99.90;;;;;;5028384;28;20051;-85
2023/09/18 04:12:18;;;;;;;14.90;12.23;;;18.20;99.90;;;;;;5028570;28;20457;-85
2023/09/18 04:17:21;;;;;;;13.30;11.90;;;17.90;99.90;;;;;;5042148;23;20816;-78
2023/09/18 04:19:46;;;;;;;14.13;11.55;;;17.90;99.90;;;;;;5019050;28;20044;-78
2023/09/18 04:22:12;;;;;;;13.35;11.63;;;17.90;99.90;;;;;;5051475;28;20102;-78
2023/09/18 04:24:38;;;;;;;13.05;11.73;;;17.90;99.90;;;;;;5041433;28;20056;-78
2023/09/18 04:27:03;;;;;;;12.43;11.23;;;17.90;99.90;;;;;;5034834;28;20457;-78
2023/09/18 04:29:29;;;;;;;12.95;11.57;;;17.90;99.90;;;;;;5069539;28;20041;-79
2023/09/18 04:31:54;;;;;;;13.15;11.20;;;18.00;99.90;;;;;;5049671;28;20109;-76
2023/09/18 04:34:21;;;;;;;12.90;11.43;;;18.00;99.90;;;;;;5054885;28;20048;-76
2023/09/18 04:36:47;;;;;;;12.75;11.32;;;18.00;99.90;;;;;;5053788;28;20410;-77
2023/09/18 04:39:13;;;;;;;13.70;11.65;;;18.00;99.90;;;;;;5049477;28;20044;-77
2023/09/18 04:41:39;;;;;;;12.30;11.02;;;18.00;99.90;;;;;;5062975;28;20113;-76
2023/09/18 04:44:05;;;;;;;11.80;10.63;;;18.00;99.90;;;;;;5064524;28;20064;-76
2023/09/18 04:46:31;;;;;;;12.77;11.52;;;18.10;99.90;;;;;;5059437;28;20041;-76
2023/09/18 04:48:56;;;;;;;12.80;11.00;;;18.10;99.90;;;;;;5058159;28;20037;-79
2023/09/18 04:51:22;;;;;;;12.70;11.35;;;18.10;99.90;;;;;;5052428;28;20053;-78
2023/09/18 04:53:47;;;;;;;14.27;12.57;;;18.10;99.90;;;;;;5054785;28;20041;-78
2023/09/18 04:56:13;;;;;;;12.20;10.82;;;18.30;99.90;;;;;;5045950;28;20507;-77
2023/09/18 04:58:39;;;;;;;12.38;11.18;;;18.10;99.90;;;;;;5049269;28;20126;-78
2023/09/18 05:01:05;;;;;;;13.00;11.55;;;18.10;99.90;;;;;;5049757;28;20048;-78
2023/09/18 05:03:34;;;;;;;11.85;10.65;;;18.10;99.90;;;;;;5033399;28;20057;-78
2023/09/18 05:05:59;;;;;;;14.15;10.18;;;18.10;99.90;;;;;;5039363;28;20135;-77
2023/09/18 05:08:25;;;;;;;14.32;10.75;;;18.20;99.90;;;;;;5048470;28;20521;-78
2023/09/18 05:10:51;;;;;;;12.13;10.55;;;18.20;99.90;;;;;;5044665;28;20144;-77
2023/09/18 05:13:16;;;;;;;13.30;10.90;;;18.50;99.90;;;;;;5061064;28;20044;-78
2023/09/18 05:15:42;;;;;;;11.95;10.65;;;18.20;99.90;;;;;;5054962;28;20041;-78
2023/09/18 05:18:08;;;;;;;13.45;11.60;;;18.20;99.90;;;;;;5049264;28;20049;-79
2023/09/18 05:20:34;;;;;;;12.05;10.88;;;18.20;99.90;;;;;;5046489;28;20124;-78
2023/09/18 05:23:01;;;;;;;14.18;10.35;;;18.30;99.90;;;;;;5046769;28;20124;-78
2023/09/18 05:25:31;;;;;;;11.63;10.45;;;18.30;99.90;;;;;;5046054;28;20067;-78
2023/09/18 05:27:58;;;;;;;12.32;10.73;;;18.30;99.90;;;;;;5029978;28;20412;-78
2023/09/18 05:30:29;;;;;;;12.60;10.40;;;18.30;99.90;;;;;;5050774;28;20052;-78
2023/09/18 05:33:04;;;;;;;14.13;10.43;;;18.30;99.90;;;;;;5048674;28;20090;-77
2023/09/18 05:35:33;;;;;;;18.63;11.15;;;18.30;99.90;;;;;;5050567;28;20048;-78
2023/09/18 05:37:59;;;;;;;15.80;10.70;;;18.30;99.90;;;;;;5049784;28;20049;-78
2023/09/18 05:40:28;;;;;;;13.32;11.07;;;18.30;99.90;;;;;;5032289;28;20080;-78
2023/09/18 05:42:55;;;;;;;12.50;9.90;;;18.30;99.90;;;;;;5014178;28;20768;-78
2023/09/18 05:45:21;;;;;;;14.40;10.27;;;18.20;99.90;;;;;;5031841;28;20064;-79
2023/09/18 05:47:48;;;;;;;12.98;10.95;;;18.80;99.90;;;;;;5050391;28;20048;-78
2023/09/18 05:50:15;;;;;;;12.32;10.50;;;18.20;99.90;;;;;;5050145;28;20045;-78
2023/09/18 05:52:43;;;;;;;13.77;9.75;;;18.30;99.90;;;;;;5030637;28;20798;-78
2023/09/18 05:55:09;;;;;;;16.45;10.18;;;18.20;99.90;;;;;;5050020;28;20110;-77
2023/09/18 05:57:35;;;;;;;15.70;10.60;;;18.20;99.90;;;;;;5048293;28;20454;-76
2023/09/18 06:00:01;;;;;;;12.77;10.60;;;18.30;99.90;;;;;;5030795;28;20032;-76
2023/09/18 06:02:27;;;;;;;12.27;9.98;;;18.20;99.90;;;;;;5048572;28;20041;-77
2023/09/18 06:04:57;;;;;;;11.52;10.30;;;18.20;99.90;;;;;;5031034;28;20052;-78
2023/09/18 06:07:24;;;;;;;14.60;10.13;;;18.20;99.90;;;;;;5049168;28;20594;-77
2023/09/18 06:09:50;;;;;;;11.80;10.60;;;18.20;99.90;;;;;;5049256;28;20080;-77
2023/09/18 06:12:15;;;;;;;12.65;10.60;;;18.70;99.90;;;;;;5048184;28;20149;-78
2023/09/18 06:14:42;;;;;;;13.85;11.43;;;18.20;99.90;;;;;;5049291;28;20049;-79
2023/09/18 06:17:09;;;;;;;17.70;10.52;;;18.20;99.90;;;;;;5025139;28;20144;-80
2023/09/18 06:19:35;;;;;;;12.77;10.70;;;18.20;99.90;;;;;;5028246;28;20077;-78
2023/09/18 06:22:01;;;;;;;11.80;10.55;;;18.40;99.90;;;;;;5027774;28;20452;-80
2023/09/18 06:24:26;;;;;;;13.77;10.18;;;18.20;99.90;;;;;;5029101;28;20111;-80
2023/09/18 06:26:53;;;;;;;14.23;10.48;;;18.20;99.90;;;;;;5029138;28;20493;-79
2023/09/18 06:29:18;;;;;;;11.75;10.07;;;18.40;99.90;;;;;;5009772;28;20073;-79
2023/09/18 06:31:44;;;;;;;12.05;10.40;;;18.50;99.90;;;;;;5027423;28;20127;-79
2023/09/18 06:34:10;;;;;;;13.75;9.52;;;18.50;99.90;;;;;;5028211;28;20549;-78
2023/09/18 06:36:35;;;;;;;13.00;9.90;;;18.30;99.90;;;;;;5026762;28;20034;-79
2023/09/18 06:39:02;;;;;;;11.90;10.10;;;18.30;99.90;;;;;;5027654;28;20061;-79
2023/09/18 06:41:27;;;;;;;12.45;9.68;;;18.30;99.90;;;;;;5027764;28;20103;-79
2023/09/18 06:43:53;;;;;;;13.50;10.30;;;18.30;99.90;;;;;;5027948;28;20037;-79
2023/09/18 06:46:19;;;;;;;12.82;9.90;;;18.50;99.90;;;;;;5028947;28;20049;-78
2023/09/18 06:48:49;;;;;;;15.52;11.30;;;18.40;99.90;;;;;;5026009;28;20513;-78
2023/09/18 06:51:15;;;;;;;18.67;13.02;;;18.40;99.90;;;;;;5026674;28;20409;-80
2023/09/18 06:53:41;;;;;;;20.52;13.60;;;18.40;99.90;;;;;;5026862;28;20037;-79
2023/09/18 06:56:09;;;;;;;18.65;14.10;;;18.40;99.90;;;;;;5027056;28;20420;-80
2023/09/18 06:58:34;;;;;;;23.35;14.10;;;18.30;99.90;;;;;;5023001;28;20120;-78
2023/09/18 07:01:00;;;;;;;26.85;14.80;;;18.30;99.90;;;;;;5023431;28;20128;-79
2023/09/18 07:03:25;;;;;;;20.00;15.80;;;18.30;99.90;;;;;;5025372;28;20060;-79
2023/09/18 07:05:51;;;;;;;24.48;16.15;;;18.60;99.90;;;;;;5024372;28;20518;-79
2023/09/18 07:08:19;;;;;;;22.23;15.18;;;18.30;99.90;;;;;;5026740;28;20060;-80
2023/09/18 07:10:45;;;;;;;16.20;13.55;;;18.30;99.90;;;;;;5022883;28;20045;-83
2023/09/18 07:13:11;;;;;;;15.90;13.15;;;18.30;99.90;;;;;;5025476;28;20041;-82
2023/09/18 07:15:37;;;;;;;15.77;12.88;;;18.10;99.90;;;;;;5024892;28;20484;-85
2023/09/18 07:18:03;;;;;;;15.38;12.52;;;18.20;99.90;;;;;;5025974;28;20085;-81
2023/09/18 07:20:30;;;;;;;18.08;12.15;;;18.20;99.90;;;;;;5010130;28;20135;-81
2023/09/18 07:22:55;;;;;;;12.75;10.85;;;18.50;99.90;;;;;;5027172;28;20042;-81
2023/09/18 07:25:21;;;;;;;13.30;11.32;;;18.20;99.90;;;;;;5025132;28;20084;-80
2023/09/18 07:27:46;;;;;;;13.77;11.32;;;18.30;99.90;;;;;;5025666;28;20141;-78
2023/09/18 07:30:16;;;;;;;15.65;11.90;;;18.30;99.90;;;;;;5027782;28;20041;-79
2023/09/18 07:32:43;;;;;;;13.70;10.80;;;18.40;99.90;;;;;;5026586;28;20038;-78
2023/09/18 07:35:09;;;;;;;14.00;11.60;;;18.40;99.90;;;;;;5026666;28;20096;-81
2023/09/18 07:37:35;;;;;;;14.85;11.52;;;18.60;99.90;;;;;;5025505;28;20120;-81
2023/09/18 07:40:02;;;;;;;13.20;11.35;;;18.50;99.90;;;;;;5026905;28;20124;-80
2023/09/18 07:42:28;;;;;;;13.95;11.15;;;18.50;99.90;;;;;;5026613;28;20132;-80
2023/09/18 07:44:54;;;;;;;12.45;10.88;;;18.60;99.90;;;;;;5027517;28;20124;-80
2023/09/18 07:47:20;;;;;;;13.50;11.93;;;18.70;99.90;;;;;;5024852;28;20402;-79
2023/09/18 07:49:46;;;;;;;12.60;10.65;;;18.70;99.90;;;;;;5028925;28;20034;-79
2023/09/18 07:52:12;;;;;;;14.13;10.77;;;18.80;99.90;;;;;;5028338;28;20045;-79
2023/09/18 07:54:38;;;;;;;15.13;11.50;;;18.80;99.90;;;;;;5026599;28;20386;-78
2023/09/18 07:57:04;;;;;;;15.23;11.15;;;18.80;99.90;;;;;;5031519;28;20424;-78
2023/09/18 07:59:30;;;;;;;13.32;10.77;;;18.80;99.90;;;;;;5019835;28;20038;-79
2023/09/18 08:01:56;;;;;;;11.80;10.15;;;18.80;99.90;;;;;;5036369;28;20132;-78
2023/09/18 08:04:31;;;;;;;14.82;11.63;;;18.80;99.90;;;;;;5027584;28;20144;-79
2023/09/18 08:06:57;;;;;;;16.00;12.18;;;18.90;99.90;;;;;;5027525;28;20120;-79
2023/09/18 08:09:22;;;;;;;16.38;11.90;;;18.80;99.90;;;;;;5030803;28;20656;-78
2023/09/18 08:11:49;;;;;;;14.00;12.50;;;18.80;99.90;;;;;;5029329;28;20056;-79
2023/09/18 08:14:15;;;;;;;17.30;12.40;;;19.10;99.90;;;;;;5026714;28;20046;-79
2023/09/18 08:16:41;;;;;;;15.85;12.50;;;18.90;99.90;;;;;;5004163;28;20049;-78
2023/09/18 08:19:07;;;;;;;14.85;11.63;;;18.90;99.90;;;;;;5026547;28;20052;-79
2023/09/18 08:21:33;;;;;;;15.43;12.23;;;18.90;99.90;;;;;;5031252;28;20049;-78
2023/09/18 08:23:58;;;;;;;17.08;13.50;;;18.80;99.90;;;;;;5030844;28;20420;-79
2023/09/18 08:26:26;;;;;;;17.23;12.77;;;18.90;99.90;;;;;;5030941;28;20112;-81
2023/09/18 08:28:52;;;;;;;16.75;12.38;;;19.00;99.90;;;;;;5026112;28;20053;-80
2023/09/18 08:31:18;;;;;;;15.80;13.73;;;18.90;99.90;;;;;;5029689;28;20053;-79
2023/09/18 08:33:44;;;;;;;16.45;13.43;;;18.90;99.90;;;;;;5029160;28;20045;-80
2023/09/18 08:36:09;;;;;;;16.10;13.35;;;18.90;99.90;;;;;;5029880;28;20088;-80
2023/09/18 08:38:35;;;;;;;19.10;13.80;;;19.00;99.90;;;;;;5030768;28;20045;-80
2023/09/18 08:41:01;;;;;;;18.52;13.68;;;19.00;99.90;;;;;;5029262;28;20049;-79
2023/09/18 08:43:29;;;;;;;17.38;13.38;;;19.00;99.90;;;;;;5030269;28;20055;-80
2023/09/18 08:46:00;;;;;;;16.77;13.52;;;19.50;99.90;;;;;;5030680;28;20069;-80
2023/09/18 08:48:34;;;;;;;17.63;14.20;;;19.20;99.90;;;;;;5030594;28;20077;-80
2023/09/18 08:51:04;;;;;;;18.08;14.50;;;19.10;99.90;;;;;;5029529;28;20956;-80
2023/09/18 08:53:34;;;;;;;15.95;14.00;;;19.10;99.90;;;;;;5028786;28;20053;-80
2023/09/18 08:56:03;;;;;;;15.77;13.95;;;19.00;99.90;;;;;;5012503;28;20132;-80
2023/09/18 08:58:35;;;;;;;17.63;14.10;;;19.20;99.90;;;;;;5028562;28;20045;-81
2023/09/18 09:01:03;;;;;;;21.42;15.27;;;19.40;99.90;;;;;;5030047;28;20677;-80
2023/09/18 09:03:29;;;;;;;16.70;14.95;;;19.20;99.90;;;;;;5029924;28;20046;-81
2023/09/18 09:05:56;;;;;;;17.60;14.52;;;19.80;99.90;;;;;;5028361;28;20045;-81
2023/09/18 09:08:21;;;;;;;20.63;15.23;;;19.30;99.90;;;;;;5029149;28;20080;-80
2023/09/18 09:10:48;;;;;;;17.13;14.38;;;19.60;99.90;;;;;;5028718;28;20465;-80
2023/09/18 09:13:14;;;;;;;15.60;13.95;;;19.40;99.90;;;;;;5028730;28;20049;-80
2023/09/18 09:15:49;;;;;;;19.52;14.90;;;19.30;99.90;;;;;;5027967;28;20172;-80
2023/09/18 09:18:17;;;;;;;16.80;14.57;;;19.30;99.90;;;;;;5028982;28;20552;-79
2023/09/18 09:20:54;;;;;;;17.92;15.40;;;19.40;99.90;;;;;;5029156;28;20041;-81
2023/09/18 09:23:19;;;;;;;16.20;14.38;;;19.30;99.90;;;;;;5028158;28;20049;-79
2023/09/18 09:25:45;;;;;;;17.60;14.45;;;19.40;99.90;;;;;;5029530;28;20048;-79
2023/09/18 09:28:12;;;;;;;22.10;18.08;;;19.40;99.90;;;;;;5029405;28;20552;-79
2023/09/18 09:30:37;;;;;;;19.90;15.77;;;19.50;99.90;;;;;;5028721;28;20405;-79
2023/09/18 09:33:04;;;;;;;18.95;15.15;;;19.60;99.90;;;;;;5029608;28;20049;-79
2023/09/18 09:35:35;;;;;;;19.40;14.93;;;19.70;99.90;;;;;;5029117;28;20125;-79
2023/09/18 09:38:12;;;;;;;16.30;14.05;;;19.80;99.90;;;;;;5029857;28;20538;-79
2023/09/18 09:40:45;;;;;;;16.25;14.25;;;19.90;99.90;;;;;;5028970;28;20512;-79
2023/09/18 09:43:16;;;;;;;17.35;14.02;;;20.10;99.90;;;;;;5028419;28;20065;-79
2023/09/18 09:45:42;;;;;;;17.92;13.45;;;20.20;99.90;;;;;;5028183;28;20069;-80
2023/09/18 09:48:08;;;;;;;17.27;13.93;;;20.30;99.90;;;;;;5029524;28;20532;-79
2023/09/18 09:50:50;;;;;;;13.70;12.40;;;20.50;99.90;;;;;;5029507;28;20045;-79
2023/09/18 09:53:19;;;;;;;13.38;12.18;;;20.50;99.90;;;;;;5027943;28;20041;-79
2023/09/18 09:55:45;;;;;;;14.13;12.27;;;20.60;99.90;;;;;;5028719;28;20060;-79
2023/09/18 09:58:13;;;;;;;13.55;11.95;;;20.90;99.90;;;;;;5029075;28;20095;-79
2023/09/18 10:00:43;;;;;;;11.90;10.70;;;20.80;99.90;;;;;;5029239;28;20080;-79
2023/09/18 10:03:15;;;;;;;12.55;10.88;;;20.80;99.90;;;;;;5028247;28;20037;-79
2023/09/18 10:05:53;;;;;;;12.00;10.80;;;20.90;99.90;;;;;;5024587;28;20046;-78
2023/09/18 10:08:26;;;;;;;13.40;9.95;;;20.90;99.90;;;;;;5007732;28;20481;-77
2023/09/18 10:10:58;;;;;;;11.05;9.07;;;21.00;99.90;;;;;;5016545;28;20140;-78
2023/09/18 10:13:36;;;;;;;10.13;9.10;;;20.90;99.90;;;;;;5002249;28;20188;-77
2023/09/18 10:16:04;;;;;;;9.88;8.63;;;20.80;99.90;;;;;;5031744;28;20069;-81
2023/09/18 10:18:44;;;;;;;8.55;7.75;;;20.90;99.90;;;;;;5038991;28;20044;-79
2023/09/18 10:21:20;;;;;;;8.50;7.65;;;21.70;99.90;;;;;;5028128;28;20097;-80
2023/09/18 10:23:57;;;;;;;9.52;8.25;;;21.60;99.90;;;;;;5046675;28;20056;-79
2023/09/18 10:26:29;;;;;;;8.50;7.47;;;21.00;99.90;;;;;;5029627;28;20102;-80
2023/09/18 10:28:58;;;;;;;8.20;7.40;;;21.10;99.90;;;;;;5031019;28;20064;-82
2023/09/18 10:31:26;;;;;;;8.15;7.35;;;21.90;99.90;;;;;;5045980;28;20098;-79
2023/09/18 10:33:53;;;;;;;11.38;8.02;;;22.10;99.90;;;;;;5026466;28;20055;-80
2023/09/18 10:36:20;;;;;;;7.93;7.13;;;21.30;99.90;;;;;;5042776;28;20053;-81
2023/09/18 10:38:50;;;;;;;8.85;8.05;;;22.00;99.90;;;;;;5028934;28;20443;-81
2023/09/18 10:41:18;;;;;;;8.38;7.57;;;21.30;99.90;;;;;;5045076;28;20144;-80
2023/09/18 10:43:46;;;;;;;7.60;6.85;;;21.40;99.90;;;;;;5028958;28;20064;-80
2023/09/18 10:46:13;;;;;;;8.02;7.30;;;22.10;99.90;;;;;;5046755;28;20037;-81
2023/09/18 10:48:42;;;;;;;7.65;6.85;;;21.70;99.90;;;;;;5029330;28;20041;-81
2023/09/18 10:51:08;;;;;;;7.13;6.43;;;22.00;99.90;;;;;;5028156;28;20041;-81
2023/09/18 10:53:34;;;;;;;6.18;5.57;;;21.60;99.90;;;;;;5029871;28;20052;-81
2023/09/18 10:56:04;;;;;;;12.32;5.88;;;21.80;99.90;;;;;;5029936;28;20048;-81
2023/09/18 10:58:30;;;;;;;5.75;5.25;;;22.30;99.90;;;;;;5047049;28;20041;-81
2023/09/18 11:00:59;;;;;;;6.38;5.10;;;21.80;99.90;;;;;;5030016;28;20045;-81
2023/09/18 11:03:25;;;;;;;5.00;4.55;;;22.00;99.90;;;;;;5031449;28;20433;-81
2023/09/18 11:06:03;;;;;;;5.40;4.70;;;22.20;99.90;;;;;;5030210;28;20045;-80
2023/09/18 11:08:46;;;;;;;5.35;4.85;;;22.20;99.90;;;;;;5047893;28;20051;-79
2023/09/18 11:11:14;;;;;;;5.88;4.35;;;22.20;99.90;;;;;;5047085;28;20084;-80
2023/09/18 11:13:54;;;;;;;6.50;4.78;;;22.10;99.90;;;;;;5046605;28;20049;-80
2023/09/18 11:16:26;;;;;;;5.65;5.15;;;22.00;99.90;;;;;;5045268;28;20052;-82
2023/09/18 11:18:58;;;;;;;6.28;4.75;;;22.00;99.90;;;;;;5047536;28;20548;-81
2023/09/18 11:21:28;;;;;;;5.25;4.75;;;22.00;99.90;;;;;;5047231;28;20049;-81
2023/09/18 11:24:06;;;;;;;6.45;4.50;;;21.90;99.90;;;;;;5012493;28;20752;-80
2023/09/18 11:26:40;;;;;;;5.50;5.00;;;21.90;99.90;;;;;;5047216;28;20048;-80
2023/09/18 11:29:10;;;;;;;5.90;5.18;;;22.00;99.90;;;;;;5046694;28;20040;-79
2023/09/18 11:31:50;;;;;;;5.35;4.05;;;22.10;99.90;;;;;;5043888;28;20037;-81
2023/09/18 11:34:32;;;;;;;5.25;4.45;;;22.30;99.90;;;;;;5045403;28;20041;-80
2023/09/18 11:36:58;;;;;;;7.82;4.40;;;22.30;99.90;;;;;;5046759;28;20469;-81
2023/09/18 11:39:38;;;;;;;6.57;4.03;;;22.90;99.90;;;;;;5047015;28;20048;-79
2023/09/18 11:42:17;;;;;;;4.03;3.55;;;22.50;99.90;;;;;;5023575;28;20037;-80
2023/09/18 11:44:46;;;;;;;5.10;3.92;;;22.60;99.90;;;;;;5022988;28;20132;-79
2023/09/18 11:47:17;;;;;;;4.03;3.72;;;22.70;99.90;;;;;;5047118;28;20079;-80
2023/09/18 11:49:50;;;;;;;;;;;22.90;99.90;;;;;;5047776;28;20086;-84
2023/09/18 11:52:17;;;;;;;3.60;3.30;;;22.90;99.90;;;;;;5027865;28;19920;-82
2023/09/18 11:54:45;;;;;;;5.50;3.22;;;22.90;99.90;;;;;;5026573;28;20036;-82
2023/09/18 11:57:13;;;;;;;3.80;3.15;;;22.80;99.90;;;;;;5027391;28;20150;-83
2023/09/18 11:59:43;;;;;;;4.63;3.10;;;22.30;99.90;;;;;;5024946;28;20153;-83
2023/09/18 12:02:11;;;;;;;5.43;3.05;;;22.10;99.90;;;;;;5027128;28;20052;-83
2023/09/18 12:04:37;;;;;;;4.05;3.58;;;22.30;99.90;;;;;;5018093;28;20084;-82
2023/09/18 12:07:06;;;;;;;4.88;3.83;;;21.70;99.90;;;;;;5019630;28;20124;-82
2023/09/18 12:09:33;;;;;;;8.10;5.28;;;21.70;99.90;;;;;;5045192;28;20174;-81
2023/09/18 12:12:03;;;;;;;6.50;4.63;;;21.20;99.90;;;;;;5023009;28;20051;-82
2023/09/18 12:14:31;;;;;;;5.60;5.03;;;20.80;99.90;;;;;;5046288;28;20049;-82
2023/09/18 12:16:57;;;;;;;6.35;5.35;;;20.60;99.90;;;;;;5027467;28;20068;-81
2023/09/18 12:19:23;;;;;;;6.00;5.40;;;20.60;99.90;;;;;;5047013;28;20056;-80
2023/09/18 12:21:49;;;;;;;6.25;5.10;;;20.80;99.90;;;;;;5026051;28;20041;-80
2023/09/18 12:24:20;;;;;;;6.60;5.25;;;20.80;99.90;;;;;;5046860;28;20044;-81
2023/09/18 12:26:46;;;;;;;6.00;5.50;;;21.00;99.90;;;;;;5043877;28;20586;-80
2023/09/18 12:29:11;;;;;;;6.65;5.32;;;21.30;99.90;;;;;;5028725;28;20051;-81
2023/09/18 12:31:37;;;;;;;5.57;5.07;;;21.00;99.90;;;;;;5046371;28;20120;-82
2023/09/18 12:34:03;;;;;;;5.28;4.80;;;20.90;99.90;;;;;;5029570;28;20041;-83